Latest Weather Observations for Griffith

IDN60801

Issued at 3:35 pm EDT Saturday 22 November 2014 (issued every 30 minutes, with the page automatically refreshed every 10 minutes)

About weather observations | Map of weather stations | Latest weather observations for NSW | Other Formats
Station Details ID: 075041 Name: GRIFFITH AIRPORT AWS Lat: -34.25 Lon: 146.07 Height: 134.0 m
Data from the previous 72 hours. | See also: Recent months at Griffith
Date/Time
EDT
Temp
°C
App
Temp
°C
Dew
Point
Rel
Hum
%
Delta-T
°C
Wind Press
QNH
hPa
Press
MSL
hPa
Rain
since 9 am
mm
Dir
 
Spd
km/h
Gust
km/h
Spd
kts
Gust
kts
22/03:30pm 35.6 32.6 4.0 14 16.8 SSW 9 26 5 14 1009.6 1009.1 0.0
22/03:00pm 35.3 29.9 2.7 13 17.0 W 20 32 11 17 1010.0 1009.5 0.0
22/02:30pm 35.1 29.7 2.6 13 16.8 W 20 30 11 16 1010.2 1009.7 0.0
22/02:00pm 34.9 28.6 3.5 14 16.5 W 26 39 14 21 1010.5 1010.0 0.0
22/01:30pm 35.0 29.8 3.5 14 16.5 W 20 33 11 18 1010.8 1010.4 0.0
22/01:00pm 34.6 27.8 3.2 14 16.4 W 28 35 15 19 1011.2 1010.8 0.0
22/12:30pm 34.0 29.2 4.6 16 15.6 NNW 19 32 10 17 1011.3 1010.9 0.0
22/12:00pm 33.3 29.2 4.1 16 15.4 NNW 15 20 8 11 1011.1 1010.7 0.0
22/11:30am 32.3 28.1 5.7 19 14.3 NW 17 22 9 12 1011.0 1010.6 0.0
22/11:00am 31.2 27.9 6.3 21 13.4 NW 13 28 7 15 1011.4 1011.0 0.0
22/10:30am 30.5 27.6 6.4 22 12.9 NNW 11 20 6 11 1011.7 1011.3 0.0
22/10:00am 29.3 26.3 6.0 23 12.4 N 11 24 6 13 1011.9 1011.5 0.0
22/09:30am 28.5 25.9 6.0 24 11.9 ENE 9 17 5 9 1012.2 1011.8 0.0
22/09:00am 27.3 23.9 6.1 26 11.1 E 13 19 7 10 1012.4 1012.0 0.0
22/08:30am 25.8 22.0 5.9 28 10.3 E 15 20 8 11 1012.2 1011.8 0.0
22/08:00am 24.2 19.7 6.0 31 9.4 E 19 24 10 13 1011.8 1011.4 0.0
22/07:30am 21.8 18.0 7.6 40 7.4 E 17 24 9 13 1011.7 1011.3 0.0
22/07:00am 19.4 15.5 8.7 50 5.6 ESE 19 22 10 12 1011.2 1010.8 0.0
22/06:30am 18.5 15.1 7.6 49 5.6 E 15 17 8 9 1011.4 1011.0 0.0
22/06:00am 16.9 15.4 7.0 52 5.0 SE 4 7 2 4 1011.4 1011.0 0.0
22/05:30am 17.4 14.3 7.2 51 5.1 ESE 13 15 7 8 1011.0 1010.6 0.0
22/05:00am 17.0 14.0 7.6 54 4.8 E 13 17 7 9 1010.7 1010.2 0.0
22/04:30am 17.5 14.5 7.5 52 5.1 E 13 15 7 8 1010.7 1010.2 0.0
22/04:00am 16.3 14.9 7.3 55 4.5 ESE 4 13 2 7 1010.6 1010.1 0.0
22/03:30am 17.5 16.2 7.8 53 4.9 N 4 7 2 4 1010.7 1010.2 0.0
22/03:00am 17.2 16.5 8.4 56 4.5 SE 2 7 1 4 1010.6 1010.1 0.0
22/02:30am 17.9 15.2 9.0 56 4.7 ESE 13 15 7 8 1010.8 1010.4 0.0
22/02:00am 18.2 15.4 7.0 48 5.7 ESE 11 13 6 7 1011.0 1010.6 0.0
22/01:30am 22.4 19.5 4.5 31 8.8 SSE 9 15 5 8 1011.1 1010.7 0.0
22/01:00am 23.3 20.0 4.3 29 9.4 S 11 15 6 8 1011.3 1010.9 0.0
22/12:30am 23.4 20.2 5.3 31 9.1 S 11 15 6 8 1011.5 1011.1 0.0
22/12:00am 23.7 20.3 6.0 32 9.1 S 13 15 7 8 1011.5 1011.1 0.0
 
Date/Time
EDT
Temp
°C
App
Temp
°C
Dew
Point
Rel
Hum
%
Delta-T
°C
Wind Press
QNH
hPa
Press
MSL
hPa
Rain
since 9 am
mm
Dir
 
Spd
km/h
Gust
km/h
Spd
kts
Gust
kts
21/11:30pm 23.0 20.4 6.3 34 8.6 SSW 9 13 5 7 1011.8 1011.4 0.0
21/11:00pm 22.9 20.8 6.6 35 8.4 SSW 7 9 4 5 1011.8 1011.4 0.0
21/10:30pm 23.3 21.3 7.0 35 8.5 S 7 9 4 5 1011.7 1011.3 0.0
21/10:00pm 23.1 21.4 7.6 37 8.2 SSW 6 9 3 5 1011.6 1011.2 0.0
21/09:30pm 23.3 21.7 7.8 37 8.2 S 6 7 3 4 1011.4 1011.0 0.0
21/09:00pm 24.0 23.4 7.6 35 8.7 CALM 0 0 0 0 1011.3 1010.9 0.0
21/08:30pm 25.9 24.1 8.0 32 9.6 SW 7 9 4 5 1010.9 1010.5 0.0
21/08:00pm 27.0 24.1 8.0 30 10.3 WSW 13 17 7 9 1010.7 1010.2 0.0
21/07:30pm 28.7 24.8 7.3 26 11.6 WSW 17 22 9 12 1010.4 1009.9 0.0
21/07:00pm 29.3 24.6 7.8 26 11.8 WSW 22 30 12 16 1010.1 1009.6 0.0
21/06:30pm 30.2 25.9 8.0 25 12.2 W 20 28 11 15 1009.6 1009.1 0.0
21/06:00pm 30.5 25.9 8.3 25 12.3 W 22 32 12 17 1009.3 1008.8 0.0
21/05:30pm 30.5 25.8 7.7 24 12.5 W 22 35 12 19 1009.3 1008.8 0.0
21/05:00pm 30.5 25.4 7.7 24 12.5 WSW 24 41 13 22 1009.3 1008.8 0.0
21/04:30pm 30.5 25.6 8.3 25 12.3 W 24 35 13 19 1009.2 1008.7 0.0
21/04:00pm 31.0 26.3 9.3 26 12.3 W 24 35 13 19 1009.3 1008.8 0.0
21/03:30pm 30.0 24.6 9.5 28 11.6 W 28 33 15 18 1009.7 1009.2 0.0
21/03:00pm 29.9 25.9 10.5 30 11.1 W 22 30 12 16 1010.0 1009.5 0.0
21/02:30pm 29.7 25.3 10.3 30 11.1 WNW 24 32 13 17 1010.1 1009.6 0.0
21/02:00pm 28.9 24.4 10.1 31 10.7 W 24 37 13 20 1010.4 1009.9 0.0
21/01:30pm 29.4 25.2 11.0 32 10.6 W 24 44 13 24 1010.6 1010.1 0.0
21/01:00pm 28.3 24.7 11.8 36 9.6 W 22 32 12 17 1010.8 1010.4 0.0
21/12:30pm 28.0 23.9 11.5 35 9.5 W 24 35 13 19 1011.0 1010.6 0.0
21/12:00pm 28.5 23.7 12.8 38 9.3 WSW 30 41 16 22 1011.1 1010.7 0.0
21/11:30am 27.4 23.7 12.6 40 8.7 W 24 35 13 19 1011.0 1010.6 0.0
21/11:00am 26.6 23.8 13.3 43 7.9 W 20 30 11 16 1010.9 1010.5 0.0
21/10:30am 26.2 23.2 13.7 46 7.4 W 22 32 12 17 1010.6 1010.1 0.0
21/10:00am 26.0 23.0 14.8 50 6.8 WSW 24 32 13 17 1010.9 1010.5 0.0
21/09:30am 25.4 22.5 15.1 53 6.2 WSW 24 32 13 17 1010.9 1010.5 0.0
21/09:00am 24.4 21.3 14.5 54 5.9 WSW 24 30 13 16 1010.6 1010.1 0.0
21/08:30am 23.9 21.4 14.0 54 5.8 W 20 26 11 14 1010.4 1009.9 0.0
21/08:00am 23.3 20.6 13.5 54 5.7 SW 20 26 11 14 1010.1 1009.6 0.0
21/07:30am 22.7 20.0 12.9 54 5.7 WSW 19 24 10 13 1009.8 1009.3 0.0
21/07:00am 21.5 20.6 12.6 57 5.1 W 9 13 5 7 1009.5 1009.0 0.0
21/06:30am 19.0 18.4 12.3 65 3.8 W 7 11 4 6 1009.3 1008.8 0.0
21/06:00am 18.6 18.1 12.1 66 3.6 W 6 7 3 4 1008.9 1008.4 0.0
21/05:30am 18.8 17.4 12.3 66 3.6 W 11 13 6 7 1008.8 1008.3 0.0
21/05:00am 18.4 17.7 11.9 66 3.6 W 7 9 4 5 1008.6 1008.1 0.0
21/04:30am 19.0 18.4 11.8 63 4.0 N 6 7 3 4 1008.2 1007.7 0.0
21/04:00am 18.7 17.8 11.5 63 4.0 NNE 7 9 4 5 1007.7 1007.3 0.0
21/03:30am 19.5 19.2 11.5 60 4.4 N 4 6 2 3 1007.9 1007.5 0.0
21/03:00am 19.8 19.8 11.3 58 4.7 SW 2 6 1 3 1008.3 1007.8 0.0
21/02:30am 20.4 20.8 11.3 56 5.0 CALM 0 4 0 2 1007.8 1007.4 0.0
21/02:00am 21.4 21.8 11.1 52 5.7 CALM 0 0 0 0 1007.6 1007.2 0.0
21/01:30am 22.0 22.3 10.8 49 6.2 CALM 0 0 0 0 1008.4 1007.9 0.0
21/01:00am 23.4 23.9 11.5 47 6.7 CALM 0 6 0 3 1008.3 1007.8 0.0
21/12:30am 23.7 22.7 11.1 45 7.1 ESE 7 11 4 6 1007.9 1007.5 0.0
21/12:00am 24.3 22.2 11.3 44 7.4 ESE 13 19 7 10 1007.5 1007.1 0.0
 
Date/Time
EDT
Temp
°C
App
Temp
°C
Dew
Point
Rel
Hum
%
Delta-T
°C
Wind Press
QNH
hPa
Press
MSL
hPa
Rain
since 9 am
mm
Dir
 
Spd
km/h
Gust
km/h
Spd
kts
Gust
kts
20/11:30pm 25.1 22.6 10.9 41 8.0 SSE 15 20 8 11 1007.9 1007.5 0.0
20/11:00pm 25.7 23.1 10.7 39 8.5 S 15 24 8 13 1008.5 1008.0 0.0
20/10:30pm 26.2 21.4 10.4 37 8.9 SSW 26 35 14 19 1008.5 1008.0 0.0
20/10:00pm 26.7 20.7 10.0 35 9.4 SSW 32 50 17 27 1008.4 1007.9 0.0
20/09:56pm 26.8 20.8 10.1 35 9.4 S 32 50 17 27 1008.2 1007.7 0.0
20/09:30pm 27.7 22.3 9.5 32 10.1 SSW 28 37 15 20 1008.1 1007.6 0.0
20/09:14pm 28.4 22.9 9.2 30 10.7 SW 28 46 15 25 1008.6 1008.1 0.0
20/09:00pm 28.9 22.9 8.6 28 11.2 WSW 30 43 16 23 1008.4 1007.9 0.0
20/08:40pm 30.1 23.9 6.1 22 12.8 WSW 28 46 15 25 1007.9 1007.5 0.0
20/08:30pm 30.3 25.1 3.4 18 13.7 WSW 20 26 11 14 1007.4 1007.0 0.0
20/08:00pm 31.5 24.9 1.8 15 14.9 SW 26 33 14 18 1006.4 1006.0 0.0
20/07:45pm 31.9 22.7 1.1 14 15.3 SW 39 57 21 31 1006.0 1005.6 0.0
20/07:30pm 32.7 23.4 0.7 13 15.8 SW 39 54 21 29 1005.3 1004.9 0.0
20/07:29pm 32.8 23.5 0.8 13 15.9 SW 39 54 21 29 1005.3 1004.9 0.0
20/07:26pm 33.1 24.8 -0.1 12 16.3 WNW 33 43 18 23 1005.0 1004.6 0.0
20/07:00pm 34.1 29.0 -1.8 10 17.3 NW 15 19 8 10 1004.5 1004.1 0.0
20/06:30pm 34.8 28.8 -2.7 9 17.8 WNW 19 28 10 15 1004.5 1004.1 0.0
20/06:00pm 35.9 29.7 -3.5 8 18.7 WNW 20 35 11 19 1004.4 1004.0 0.0
20/05:30pm 36.6 28.7 -4.7 7 19.2 WNW 28 41 15 22 1004.5 1004.1 0.0
20/05:00pm 36.0 29.0 -3.4 8 18.7 NW 24 37 13 20 1004.7 1004.3 0.0
20/04:30pm 36.7 29.8 -2.9 8 19.0 NW 24 41 13 22 1005.0 1004.6 0.0
20/04:00pm 36.6 29.3 -3.0 8 19.0 NNW 26 35 14 19 1005.3 1004.9 0.0
20/03:30pm 36.8 29.9 -2.8 8 19.0 NW 24 33 13 18 1005.7 1005.3 0.0
20/03:00pm 36.8 29.7 -1.2 9 18.8 NNW 26 35 14 19 1006.3 1005.9 0.0
20/02:30pm 36.2 28.3 -1.7 9 18.5 WNW 30 41 16 22 1006.8 1006.4 0.0
20/02:00pm 36.5 29.0 -1.4 9 18.6 NW 28 39 15 21 1007.5 1007.1 0.0
20/01:38pm 35.5 27.9 -2.2 9 18.1 NW 28 50 15 27 1007.7 1007.3 0.0
20/01:30pm 36.2 29.8 -1.7 9 18.5 WNW 22 50 12 27 1007.8 1007.4 0.0
20/01:00pm 34.6 27.7 -2.9 9 17.8 NW 24 35 13 19 1008.6 1008.1 0.0
20/12:30pm 34.8 28.7 -2.7 9 17.8 NNW 20 35 11 19 1008.9 1008.4 0.0
20/12:00pm 34.6 26.9 -2.9 9 17.7 NNW 28 37 15 20 1009.5 1009.0 0.0
20/11:44am 34.0 26.4 -1.9 10 17.2 NNW 28 46 15 25 1009.7 1009.2 0.0
20/11:30am 33.9 26.3 -2.0 10 17.1 NNW 28 37 15 20 1010.0 1009.5 0.0
20/11:00am 32.8 24.7 -2.8 10 16.7 NNW 30 37 16 20 1010.5 1010.0 0.0
20/10:30am 32.7 24.8 -1.6 11 16.3 N 30 43 16 23 1010.5 1010.0 0.0
20/10:00am 31.1 24.3 0.5 14 15.0 N 26 35 14 19 1011.2 1010.8 0.0
20/09:30am 30.1 22.6 -1.3 13 14.8 N 28 39 15 21 1011.3 1010.9 0.0
20/09:00am 29.9 22.0 -1.5 13 14.7 N 30 41 16 22 1011.3 1010.9 0.0
20/08:30am 29.0 22.3 -1.2 14 14.1 N 24 33 13 18 1011.6 1011.2 0.0
20/08:00am 24.7 22.2 4.5 27 10.1 NNW 7 11 4 6 1012.1 1011.7 0.0
20/07:30am 22.6 20.8 3.7 29 9.2 N 2 7 1 4 1011.9 1011.5 0.0
20/07:00am 18.9 17.7 6.4 44 6.3 E 2 6 1 3 1011.7 1011.3 0.0
20/06:30am 17.6 16.5 4.9 43 6.1 CALM 0 0 0 0 1011.9 1011.5 0.0
20/06:00am 18.0 16.4 2.7 36 7.1 CALM 0 0 0 0 1011.6 1011.2 0.0
20/05:30am 16.4 15.4 5.4 48 5.3 CALM 0 0 0 0 1011.4 1011.0 0.0
20/05:00am 16.7 15.4 4.1 43 5.9 CALM 0 0 0 0 1011.4 1011.0 0.0
20/04:30am 15.7 14.4 4.1 46 5.4 CALM 0 0 0 0 1011.4 1011.0 0.0
20/04:00am 16.0 14.8 4.7 47 5.4 CALM 0 0 0 0 1011.4 1011.0 0.0
20/03:30am 16.2 14.9 3.9 44 5.7 CALM 0 0 0 0 1011.5 1011.1 0.0
20/03:00am 16.6 15.3 4.0 43 5.9 CALM 0 0 0 0 1011.7 1011.3 0.0
20/02:30am 16.9 15.5 3.6 41 6.2 CALM 0 0 0 0 1011.9 1011.5 0.0
20/02:00am 17.3 16.5 6.5 49 5.4 CALM 0 0 0 0 1012.1 1011.7 0.0
20/01:30am 19.0 17.7 4.0 37 7.2 CALM 0 0 0 0 1012.3 1011.9 0.0
20/01:00am 19.8 16.2 3.1 33 7.9 ENE 11 17 6 9 1012.6 1012.2 0.0
20/12:30am 19.8 14.9 2.2 31 8.2 E 17 17 9 9 1012.7 1012.3 0.0
20/12:00am 20.0 15.5 1.9 30 8.4 E 15 17 8 9 1012.7 1012.3 0.0
 
Date/Time
EDT
Temp
°C
App
Temp
°C
Dew
Point
Rel
Hum
%
Delta-T
°C
Wind Press
QNH
hPa
Press
MSL
hPa
Rain
since 9 am
mm
Dir
 
Spd
km/h
Gust
km/h
Spd
kts
Gust
kts
19/11:30pm 19.9 15.9 2.7 32 8.1 E 13 15 7 8 1013.0 1012.6 0.0
19/11:00pm 21.1 17.7 4.2 33 8.2 E 11 13 6 7 1013.2 1012.8 0.0
19/10:30pm 21.2 17.3 3.4 31 8.5 E 13 15 7 8 1013.1 1012.7 0.0
19/10:00pm 20.9 16.8 2.2 29 8.7 ESE 13 15 7 8 1013.3 1012.9 0.0
19/09:30pm 21.6 18.2 1.8 27 9.2 ESE 9 11 5 6 1013.1 1012.7 0.0
19/09:00pm 22.1 19.0 1.2 25 9.7 SE 7 9 4 5 1013.2 1012.8 0.0
19/08:30pm 23.3 20.0 0.4 22 10.5 S 7 9 4 5 1013.2 1012.8 0.0
19/08:00pm 26.9 23.5 -1.9 15 13.1 SSW 6 7 3 4 1013.2 1012.8 0.0
19/07:30pm 30.0 26.9 -2.5 12 14.9 W 4 9 2 5 1012.9 1012.5 0.0
19/07:00pm 30.4 25.5 -3.3 11 15.3 W 13 15 7 8 1012.8 1012.4 0.0
19/06:30pm 29.8 25.5 -1.5 13 14.6 W 11 17 6 9 1012.8 1012.4 0.0
19/06:00pm 30.3 25.8 -3.4 11 15.3 WSW 11 17 6 9 1013.0 1012.6 0.0
19/05:30pm 31.5 26.3 -2.5 11 15.8 WSW 15 24 8 13 1013.1 1012.7 0.0
19/05:00pm 30.8 26.3 -3.0 11 15.5 WNW 11 22 6 12 1013.4 1013.0 0.0
19/04:30pm 30.4 26.4 -2.2 12 15.1 SSW 9 19 5 10 1013.6 1013.2 0.0
19/04:00pm 30.6 24.5 -2.0 12 15.2 WNW 20 30 11 16 1014.0 1013.6 0.0

Other Formats:

Comma delimited format used in spreadsheet applications
http://www.bom.gov.au/fwo/IDN60801/IDN60801.95704.axf

JavaScript Object Notation format (JSON) in row-major order
http://www.bom.gov.au/fwo/IDN60801/IDN60801.95704.json